createdAt,value
2019-04-11T00:02:14.337Z,36.30
2019-04-11T00:04:43.174Z,32.23
2019-04-11T00:07:12.351Z,34.37
2019-04-11T00:09:41.462Z,32.23
2019-04-11T00:12:10.742Z,31.73
2019-04-11T00:14:40.172Z,29.87
2019-04-11T00:17:10.010Z,30.50
2019-04-11T00:19:39.862Z,31.20
2019-04-11T00:22:09.008Z,29.87
2019-04-11T00:24:38.788Z,30.10
2019-04-11T00:27:08.709Z,24.93
2019-04-11T00:29:38.632Z,33.37
2019-04-11T00:32:09.678Z,31.93
2019-04-11T00:34:39.329Z,30.80
2019-04-11T00:37:08.903Z,30.73
2019-04-11T00:39:38.053Z,29.27
2019-04-11T00:42:07.239Z,29.90
2019-04-11T00:44:36.390Z,28.60
2019-04-11T00:47:06.853Z,30.57
2019-04-11T00:49:36.665Z,27.87
2019-04-11T00:52:06.550Z,31.47
2019-04-11T00:54:35.534Z,24.90
2019-04-11T00:57:04.592Z,27.17
2019-04-11T00:59:34.164Z,22.87
2019-04-11T01:02:05.192Z,24.33
2019-04-11T01:04:34.975Z,24.57
2019-04-11T01:07:04.757Z,25.07
2019-04-11T01:09:34.703Z,24.87
2019-04-11T01:12:04.660Z,25.33
2019-04-11T01:14:35.951Z,22.80
2019-04-11T01:17:06.292Z,25.93
2019-04-11T01:19:35.804Z,26.47
2019-04-11T01:22:05.736Z,26.30
2019-04-11T01:24:35.602Z,25.47
2019-04-11T01:27:05.615Z,26.77
2019-04-11T01:29:35.660Z,25.47
2019-04-11T01:32:08.320Z,28.57
2019-04-11T01:34:37.359Z,30.83
2019-04-11T01:37:07.249Z,25.37
2019-04-11T01:39:59.205Z,24.00
2019-04-11T01:42:28.883Z,26.00
2019-04-11T01:44:58.450Z,25.97
2019-04-11T01:47:42.751Z,28.93
2019-04-11T01:50:12.915Z,28.47
2019-04-11T01:52:42.478Z,27.37
2019-04-11T01:55:12.295Z,28.40
2019-04-11T01:57:43.139Z,23.37
2019-04-11T02:00:22.479Z,27.70
2019-04-11T02:02:55.261Z,26.03
2019-04-11T02:05:29.377Z,26.40
2019-04-11T02:07:58.714Z,23.07
2019-04-11T02:10:28.708Z,24.87
2019-04-11T02:12:59.616Z,23.60
2019-04-11T02:15:28.739Z,24.30
2019-04-11T02:17:57.717Z,25.67
2019-04-11T02:20:27.183Z,25.80
2019-04-11T02:23:07.655Z,21.90
2019-04-11T02:25:59.549Z,22.73
2019-04-11T02:28:28.923Z,23.43
2019-04-11T02:30:59.991Z,27.73
2019-04-11T02:33:30.647Z,26.53
2019-04-11T02:36:00.916Z,21.30
2019-04-11T02:38:30.581Z,25.63
2019-04-11T02:41:01.212Z,25.40
2019-04-11T02:43:31.995Z,25.50
2019-04-11T02:46:11.713Z,21.70
2019-04-11T02:48:35.286Z,23.20
2019-04-11T02:51:06.941Z,23.63
2019-04-11T02:53:36.631Z,22.27
2019-04-11T02:56:06.842Z,23.80
2019-04-11T02:58:39.059Z,24.17
2019-04-11T03:01:10.499Z,26.07
2019-04-11T03:03:39.970Z,26.07
2019-04-11T03:06:11.132Z,24.57
2019-04-11T03:08:41.167Z,23.63
2019-04-11T03:11:11.407Z,24.13
2019-04-11T03:13:42.076Z,24.63
2019-04-11T03:16:28.116Z,23.97
2019-04-11T03:19:01.918Z,22.73
2019-04-11T03:21:17.987Z,23.60
2019-04-11T03:23:44.184Z,23.37
2019-04-11T03:26:14.142Z,20.33
2019-04-11T03:28:47.400Z,22.23
2019-04-11T03:31:50.463Z,24.47
2019-04-11T03:34:39.829Z,19.87
2019-04-11T03:37:08.827Z,20.67
2019-04-11T03:39:11.487Z,22.07
2019-04-11T03:41:34.790Z,21.13
2019-04-11T03:44:01.728Z,19.13
2019-04-11T03:46:38.090Z,20.33
2019-04-11T03:49:03.826Z,20.70
2019-04-11T03:51:25.815Z,20.37
2019-04-11T03:53:56.785Z,18.87
2019-04-11T03:56:26.618Z,20.03
2019-04-11T03:58:57.597Z,18.43
2019-04-11T04:01:27.466Z,19.30
2019-04-11T04:03:58.184Z,20.50
2019-04-11T04:06:28.695Z,19.70
2019-04-11T04:08:58.531Z,16.33
2019-04-11T04:11:30.448Z,16.70
2019-04-11T04:14:19.393Z,20.27
2019-04-11T04:17:01.699Z,19.73
2019-04-11T04:20:08.785Z,19.77
2019-04-11T04:22:45.789Z,18.57
2019-04-11T04:25:16.510Z,22.33
2019-04-11T04:27:46.855Z,20.00
2019-04-11T04:30:18.096Z,18.23
2019-04-11T04:32:49.122Z,18.27
2019-04-11T04:35:21.377Z,18.83
2019-04-11T04:37:51.717Z,24.73
2019-04-11T04:40:36.142Z,22.43
2019-04-11T04:42:55.315Z,17.53
2019-04-11T04:45:24.295Z,19.63
2019-04-11T04:48:00.486Z,21.23
2019-04-11T04:50:26.522Z,20.60
2019-04-11T04:52:56.508Z,19.73
2019-04-11T04:55:28.165Z,22.37
2019-04-11T04:57:57.746Z,20.67
2019-04-11T05:00:31.464Z,19.67
2019-04-11T05:02:59.990Z,19.30
2019-04-11T05:05:31.029Z,18.73
2019-04-11T05:08:02.727Z,20.07
2019-04-11T05:10:32.747Z,18.43
2019-04-11T05:13:03.607Z,19.03
2019-04-11T05:15:34.544Z,18.43
2019-04-11T05:18:04.186Z,20.33
2019-04-11T05:20:34.278Z,21.07
2019-04-11T05:23:04.318Z,19.20
2019-04-11T05:25:34.835Z,20.80
2019-04-11T05:28:04.394Z,23.57
2019-04-11T05:30:33.869Z,20.47
2019-04-11T05:33:04.009Z,20.97
2019-04-11T05:35:34.485Z,21.40
2019-04-11T05:38:04.823Z,20.83
2019-04-11T05:40:34.448Z,19.27
2019-04-11T05:43:03.913Z,19.90
2019-04-11T05:45:33.788Z,18.13
2019-04-11T05:48:05.414Z,17.77
2019-04-11T05:50:36.374Z,17.33
2019-04-11T05:53:05.758Z,19.13
2019-04-11T05:55:41.418Z,19.20
2019-04-11T05:58:12.276Z,20.20
2019-04-11T06:00:51.069Z,19.67
2019-04-11T06:03:20.125Z,17.77
2019-04-11T06:06:08.629Z,15.80
2019-04-11T06:08:38.020Z,19.80
2019-04-11T06:11:26.449Z,18.27
2019-04-11T06:14:17.288Z,16.30
2019-04-11T06:16:52.611Z,18.83
2019-04-11T06:19:30.645Z,16.97
2019-04-11T06:22:02.727Z,20.77
2019-04-11T06:24:40.537Z,17.87
2019-04-11T06:27:24.116Z,14.90
2019-04-11T06:30:12.362Z,16.77
2019-04-11T06:33:00.723Z,15.57
2019-04-11T06:35:54.699Z,13.43
2019-04-11T06:39:00.806Z,13.57
2019-04-11T06:41:51.283Z,16.03
2019-04-11T06:44:42.102Z,14.07
2019-04-11T06:47:34.691Z,15.20
2019-04-11T06:50:22.971Z,16.00
2019-04-11T06:52:52.964Z,13.63
2019-04-11T06:55:44.742Z,15.03
2019-04-11T06:58:37.343Z,17.30
2019-04-11T07:01:11.881Z,14.97
2019-04-11T07:03:51.001Z,13.10
2019-04-11T07:06:24.090Z,15.20
2019-04-11T07:09:14.509Z,14.33
2019-04-11T07:11:48.412Z,17.23
2019-04-11T07:14:43.347Z,13.77
2019-04-11T07:17:30.236Z,15.43
2019-04-11T07:20:18.641Z,12.57
2019-04-11T07:23:07.891Z,16.73
2019-04-11T07:25:56.278Z,19.00
2019-04-11T07:29:02.878Z,15.37
2019-04-11T07:31:57.543Z,18.83
2019-04-11T07:34:49.896Z,15.37
2019-04-11T07:37:32.867Z,15.57
2019-04-11T07:40:24.361Z,14.87
2019-04-11T07:43:12.488Z,17.37
2019-04-11T07:45:47.134Z,13.43
2019-04-11T07:48:21.402Z,14.80
2019-04-11T07:50:54.138Z,17.40
2019-04-11T07:53:24.044Z,14.43
2019-04-11T07:55:55.417Z,16.62
2019-04-11T07:58:33.013Z,15.80
2019-04-11T08:01:30.839Z,16.77
2019-04-11T08:04:18.106Z,20.90
2019-04-11T08:07:06.543Z,23.97
2019-04-11T08:09:41.594Z,18.97
2019-04-11T08:12:23.555Z,20.63
2019-04-11T08:15:10.503Z,18.43
2019-04-11T08:17:42.962Z,26.93
2019-04-11T08:20:31.140Z,36.37
2019-04-11T08:23:03.566Z,21.33
2019-04-11T08:25:50.553Z,24.80
2019-04-11T08:28:20.914Z,19.07
2019-04-11T08:31:28.792Z,16.97
2019-04-11T08:34:04.884Z,16.13
2019-04-11T08:36:53.397Z,20.40
2019-04-11T08:39:26.519Z,19.03
2019-04-11T08:42:11.238Z,21.47
2019-04-11T08:44:43.534Z,15.90
2019-04-11T08:47:16.258Z,18.63
2019-04-11T08:49:48.417Z,19.83
2019-04-11T08:52:38.172Z,20.00
2019-04-11T08:55:12.378Z,18.43
2019-04-11T08:57:44.841Z,15.60
2019-04-11T09:00:40.177Z,17.93
2019-04-11T09:03:23.868Z,14.93
2019-04-11T09:06:12.544Z,21.20
2019-04-11T09:09:00.843Z,15.87
2019-04-11T09:11:51.395Z,18.97
2019-04-11T09:14:38.146Z,15.87
2019-04-11T09:17:20.978Z,17.53
2019-04-11T09:20:07.459Z,18.70
2019-04-11T09:22:39.491Z,18.73
2019-04-11T09:25:28.974Z,16.63
2019-04-11T09:28:29.591Z,19.73
2019-04-11T09:31:17.186Z,16.97
2019-04-11T09:34:00.036Z,16.40
2019-04-11T09:36:47.257Z,20.10
2019-04-11T09:39:23.436Z,18.17
2019-04-11T09:42:14.683Z,16.30
2019-04-11T09:44:55.304Z,16.33
2019-04-11T09:47:42.222Z,23.33
2019-04-11T09:50:16.070Z,17.83
2019-04-11T09:52:47.403Z,23.07
2019-04-11T09:55:41.870Z,18.97
2019-04-11T09:58:23.502Z,17.23
2019-04-11T10:01:20.887Z,19.33
2019-04-11T10:03:50.807Z,18.70
2019-04-11T10:06:36.714Z,20.60
2019-04-11T10:09:11.409Z,23.50
2019-04-11T10:11:48.581Z,21.13
2019-04-11T10:14:19.720Z,22.97
2019-04-11T10:17:26.024Z,21.93
2019-04-11T10:20:00.678Z,21.33
2019-04-11T10:22:48.973Z,20.50
2019-04-11T10:25:43.520Z,18.47
2019-04-11T10:28:32.007Z,18.67
2019-04-11T10:31:20.220Z,21.60
2019-04-11T10:33:55.651Z,19.43
2019-04-11T10:36:27.392Z,20.80
2019-04-11T10:39:15.796Z,19.60
2019-04-11T10:41:47.912Z,19.80
2019-04-11T10:44:31.952Z,20.17
2019-04-11T10:47:16.457Z,18.43
2019-04-11T10:50:09.057Z,22.40
2019-04-11T10:52:41.101Z,19.00
2019-04-11T10:55:19.814Z,17.53
2019-04-11T10:58:08.808Z,21.23
2019-04-11T11:00:41.754Z,17.33
2019-04-11T11:03:18.189Z,19.87
2019-04-11T11:05:49.774Z,22.73
2019-04-11T11:08:26.613Z,21.20
2019-04-11T11:10:57.741Z,19.30
2019-04-11T11:13:45.793Z,18.60
2019-04-11T11:16:15.907Z,19.80
2019-04-11T11:19:28.938Z,24.57
2019-04-11T11:21:35.559Z,23.63
2019-04-11T11:24:39.134Z,19.83
2019-04-11T11:27:07.358Z,17.80
2019-04-11T11:29:45.345Z,20.60
2019-04-11T11:32:34.058Z,20.50
2019-04-11T11:35:27.560Z,23.10
2019-04-11T11:38:04.130Z,19.00
2019-04-11T11:40:56.622Z,19.97
2019-04-11T11:43:27.848Z,17.73
2019-04-11T11:46:06.994Z,19.30
2019-04-11T11:48:39.553Z,20.53
2019-04-11T11:51:13.382Z,23.20
2019-04-11T11:53:53.221Z,21.67
2019-04-11T11:56:22.162Z,20.67
2019-04-11T11:59:09.136Z,21.87
2019-04-11T12:01:45.128Z,21.53
2019-04-11T12:04:48.693Z,20.83
2019-04-11T12:07:20.960Z,20.10
2019-04-11T12:10:07.159Z,18.70
2019-04-11T12:12:46.851Z,19.87
2019-04-11T12:15:35.060Z,21.63
2019-04-11T12:18:22.648Z,19.83
2019-04-11T12:20:59.281Z,22.20
2019-04-11T12:24:03.801Z,21.57
2019-04-11T12:26:32.800Z,21.00
2019-04-11T12:29:08.697Z,22.60
2019-04-11T12:31:39.635Z,21.73
2019-04-11T12:34:47.000Z,20.83
2019-04-11T12:37:22.645Z,22.53
2019-04-11T12:40:17.223Z,22.23
2019-04-11T12:42:46.645Z,22.87
2019-04-11T12:45:47.305Z,21.93
2019-04-11T12:48:16.870Z,23.40
2019-04-11T12:51:10.913Z,20.20
2019-04-11T12:53:40.913Z,26.33
2019-04-11T12:56:19.531Z,26.03
2019-04-11T12:58:51.130Z,22.07
2019-04-11T13:01:38.702Z,20.37
2019-04-11T13:04:26.505Z,22.00
2019-04-11T13:07:33.385Z,22.50
2019-04-11T13:10:29.000Z,24.27
2019-04-11T13:13:17.680Z,24.30
2019-04-11T13:15:54.726Z,28.73
2019-04-11T13:18:46.291Z,23.03
2019-04-11T13:21:25.446Z,22.00
2019-04-11T13:24:07.126Z,23.47
2019-04-11T13:27:13.888Z,25.07
2019-04-11T13:30:04.813Z,23.13
2019-04-11T13:32:56.307Z,24.03
2019-04-11T13:35:42.399Z,25.60
2019-04-11T13:38:17.831Z,22.47
2019-04-11T13:41:20.357Z,22.97
2019-04-11T13:44:01.643Z,23.50
2019-04-11T13:46:49.768Z,23.77
2019-04-11T13:49:36.363Z,24.03
2019-04-11T13:52:24.570Z,25.93
2019-04-11T13:55:10.587Z,19.77
2019-04-11T13:57:59.151Z,25.10
2019-04-11T14:00:39.524Z,25.57
2019-04-11T14:03:45.444Z,25.53
2019-04-11T14:06:43.348Z,26.27
2019-04-11T14:09:23.526Z,23.27
2019-04-11T14:11:54.186Z,23.20
2019-04-11T14:14:42.480Z,23.73
2019-04-11T14:17:33.421Z,22.63
2019-04-11T14:20:29.044Z,23.27
2019-04-11T14:23:14.811Z,27.13
2019-04-11T14:26:11.747Z,23.17
2019-04-11T14:28:43.676Z,23.83
2019-04-11T14:31:41.012Z,21.87
2019-04-11T14:34:29.329Z,24.47
2019-04-11T14:37:11.279Z,23.30
2019-04-11T14:39:42.646Z,23.87
2019-04-11T14:42:21.094Z,21.37
2019-04-11T14:44:51.111Z,28.03
2019-04-11T14:47:48.136Z,21.50
2019-04-11T14:50:18.285Z,23.40
2019-04-11T14:53:16.852Z,28.90
2019-04-11T14:55:46.730Z,25.87
2019-04-11T14:58:35.322Z,24.80
2019-04-11T15:01:07.858Z,24.93
2019-04-11T15:03:44.758Z,24.83
2019-04-11T15:06:24.098Z,24.97
2019-04-11T15:09:24.603Z,26.00
2019-04-11T15:11:56.982Z,23.80
2019-04-11T15:14:51.906Z,22.47
2019-04-11T15:17:33.007Z,24.10
2019-04-11T15:20:34.752Z,23.93
2019-04-11T15:23:10.894Z,23.80
2019-04-11T15:26:08.849Z,22.97
2019-04-11T15:28:59.991Z,23.40
2019-04-11T15:31:48.203Z,21.93
2019-04-11T15:34:36.403Z,22.13
2019-04-11T15:37:23.132Z,25.23
2019-04-11T15:40:19.920Z,23.80
2019-04-11T15:43:11.772Z,23.83
2019-04-11T15:46:01.379Z,25.37
2019-04-11T15:49:01.323Z,25.07
2019-04-11T15:51:40.707Z,22.60
2019-04-11T15:54:18.263Z,25.93
2019-04-11T15:56:53.070Z,25.00
2019-04-11T15:59:56.221Z,24.00
2019-04-11T16:02:38.067Z,25.03
2019-04-11T16:05:26.154Z,24.83
2019-04-11T16:08:29.269Z,22.53
2019-04-11T16:11:20.494Z,25.93
2019-04-11T16:14:11.476Z,21.57
2019-04-11T16:17:02.751Z,24.30
2019-04-11T16:19:40.194Z,25.83
2019-04-11T16:22:27.622Z,26.87
2019-04-11T16:24:58.839Z,23.90
2019-04-11T16:27:45.836Z,22.77
2019-04-11T16:30:16.310Z,20.83
2019-04-11T16:32:50.882Z,25.80
2019-04-11T16:35:27.098Z,26.27
2019-04-11T16:38:00.410Z,21.73
2019-04-11T16:40:56.591Z,26.70
2019-04-11T16:43:25.962Z,21.47
2019-04-11T16:46:13.427Z,23.40
2019-04-11T16:48:42.490Z,26.70
2019-04-11T16:51:11.576Z,26.33
2019-04-11T16:53:40.644Z,23.57
2019-04-11T16:56:12.636Z,24.70
2019-04-11T16:58:40.267Z,25.03
2019-04-11T17:01:09.815Z,23.30
2019-04-11T17:03:39.214Z,22.20
2019-04-11T17:06:16.414Z,26.60
2019-04-11T17:08:59.798Z,21.87
2019-04-11T17:11:28.849Z,30.23
2019-04-11T17:13:58.048Z,23.23
2019-04-11T17:16:30.094Z,27.60
2019-04-11T17:18:58.219Z,20.33
2019-04-11T17:21:27.026Z,23.00
2019-04-11T17:23:56.287Z,24.43
2019-04-11T17:26:25.753Z,20.30
2019-04-11T17:28:55.055Z,23.17
2019-04-11T17:31:25.927Z,25.53
2019-04-11T17:33:56.647Z,28.47
2019-04-11T17:36:25.651Z,30.13
2019-04-11T17:38:55.299Z,29.30
2019-04-11T17:41:25.062Z,26.03
2019-04-11T17:43:54.179Z,31.37
2019-04-11T17:46:26.734Z,26.93
2019-04-11T17:48:54.447Z,24.07
2019-04-11T17:51:23.542Z,22.87
2019-04-11T17:53:55.528Z,22.60
2019-04-11T17:56:25.498Z,23.13
2019-04-11T17:58:57.653Z,20.50
2019-04-11T18:01:26.146Z,23.23
2019-04-11T18:03:55.337Z,20.23
2019-04-11T18:06:25.007Z,26.27
2019-04-11T18:08:54.404Z,24.03
2019-04-11T18:11:25.946Z,25.13
2019-04-11T18:13:53.974Z,25.90
2019-04-11T18:16:23.383Z,21.00
2019-04-11T18:18:52.839Z,23.03
2019-04-11T18:21:21.921Z,27.00
2019-04-11T18:23:51.380Z,22.87
2019-04-11T18:26:21.380Z,26.13
2019-04-11T18:28:52.094Z,22.50
2019-04-11T18:31:24.717Z,27.80
2019-04-11T18:33:53.240Z,27.07
2019-04-11T18:36:22.478Z,25.47
2019-04-11T18:38:52.038Z,26.70
2019-04-11T18:41:20.875Z,26.57
2019-04-11T18:43:50.844Z,21.60
2019-04-11T18:46:20.499Z,23.47
2019-04-11T18:48:49.715Z,23.33
2019-04-11T18:51:20.914Z,21.70
2019-04-11T18:53:49.787Z,23.13
2019-04-11T18:56:19.310Z,22.17
2019-04-11T18:58:48.545Z,24.23
2019-04-11T19:01:18.996Z,21.60
2019-04-11T19:03:48.339Z,20.47
2019-04-11T19:06:27.465Z,24.97
2019-04-11T19:08:48.250Z,29.17
2019-04-11T19:11:18.027Z,29.47
2019-04-11T19:13:47.663Z,35.47
2019-04-11T19:16:16.853Z,32.03
2019-04-11T19:18:47.824Z,28.87
2019-04-11T19:21:20.206Z,25.40
2019-04-11T19:23:47.669Z,28.37
2019-04-11T19:26:16.885Z,29.67
2019-04-11T19:28:46.078Z,31.50
2019-04-11T19:31:15.770Z,28.60
2019-04-11T19:33:44.936Z,28.87
2019-04-11T19:36:14.206Z,26.60
2019-04-11T19:38:43.964Z,24.50
2019-04-11T19:41:17.294Z,22.20
2019-04-11T19:43:44.183Z,21.10
2019-04-11T19:46:13.950Z,20.60
2019-04-11T19:48:43.254Z,20.93
2019-04-11T19:51:12.600Z,21.67
2019-04-11T19:53:41.754Z,26.50
2019-04-11T19:56:19.182Z,21.20
2019-04-11T19:58:48.825Z,22.87
2019-04-11T20:01:18.455Z,20.90
2019-04-11T20:03:47.698Z,23.23
2019-04-11T20:06:16.842Z,21.90
2019-04-11T20:08:47.825Z,21.37
2019-04-11T20:11:17.085Z,20.33
2019-04-11T20:13:46.450Z,19.43
2019-04-11T20:16:15.761Z,20.10
2019-04-11T20:18:50.722Z,22.17
2019-04-11T20:21:16.282Z,17.43
2019-04-11T20:23:45.341Z,19.87
2019-04-11T20:26:14.423Z,23.87
2019-04-11T20:28:43.465Z,24.30
2019-04-11T20:31:12.354Z,21.77
2019-04-11T20:33:41.242Z,25.33
2019-04-11T20:36:11.478Z,25.00
2019-04-11T20:38:41.172Z,25.10
2019-04-11T20:41:10.469Z,25.17
2019-04-11T20:43:39.982Z,24.40
2019-04-11T20:46:09.598Z,27.13
2019-04-11T20:48:39.087Z,26.27
2019-04-11T20:51:07.912Z,32.63
2019-04-11T20:53:37.729Z,30.53
2019-04-11T20:56:09.719Z,25.30
2019-04-11T20:58:39.645Z,19.80
2019-04-11T21:01:08.676Z,20.77
2019-04-11T21:03:37.753Z,17.90
2019-04-11T21:06:07.055Z,21.53
2019-04-11T21:08:36.801Z,23.23
2019-04-11T21:11:05.938Z,23.83
2019-04-11T21:13:38.145Z,21.87
2019-04-11T21:16:05.927Z,19.80
2019-04-11T21:18:34.834Z,20.93
2019-04-11T21:21:04.094Z,20.70
2019-04-11T21:23:33.198Z,22.90
2019-04-11T21:26:02.383Z,20.97
2019-04-11T21:28:31.508Z,20.97
2019-04-11T21:31:00.870Z,18.90
2019-04-11T21:33:34.216Z,23.87
2019-04-11T21:36:02.086Z,20.03
2019-04-11T21:38:31.557Z,23.87
2019-04-11T21:41:00.844Z,23.83
2019-04-11T21:43:29.938Z,22.70
2019-04-11T21:45:59.235Z,21.93
2019-04-11T21:48:28.062Z,18.87
2019-04-11T21:50:57.262Z,23.70
2019-04-11T21:53:35.956Z,20.03
2019-04-11T21:55:57.347Z,20.13
2019-04-11T21:58:26.807Z,19.77
2019-04-11T22:01:05.200Z,22.93
2019-04-11T22:03:34.594Z,18.83
2019-04-11T22:06:03.555Z,20.50
2019-04-11T22:08:34.474Z,19.47
2019-04-11T22:11:04.310Z,19.07
2019-04-11T22:13:33.126Z,19.27
2019-04-11T22:16:02.054Z,21.47
2019-04-11T22:18:30.895Z,23.73
2019-04-11T22:21:00.115Z,28.23
2019-04-11T22:23:28.946Z,26.60
2019-04-11T22:25:58.534Z,20.90
2019-04-11T22:28:27.627Z,24.93
2019-04-11T22:30:57.114Z,21.03
2019-04-11T22:33:33.635Z,21.57
2019-04-11T22:36:02.719Z,18.57
2019-04-11T22:38:31.854Z,18.63
2019-04-11T22:41:02.014Z,20.60
2019-04-11T22:43:31.706Z,21.17
2019-04-11T22:46:01.203Z,20.93
2019-04-11T22:48:30.084Z,20.47
2019-04-11T22:50:59.566Z,21.93
2019-04-11T22:53:28.398Z,20.27
2019-04-11T22:55:58.155Z,21.70
2019-04-11T22:58:27.610Z,18.60
2019-04-11T23:00:56.814Z,24.97
2019-04-11T23:03:32.836Z,22.30
2019-04-11T23:06:01.979Z,19.83
2019-04-11T23:08:31.070Z,24.73
2019-04-11T23:10:59.878Z,24.50
2019-04-11T23:13:29.251Z,18.13
2019-04-11T23:15:58.062Z,19.70
2019-04-11T23:18:26.886Z,23.43
2019-04-11T23:20:56.057Z,23.57
2019-04-11T23:23:25.129Z,20.77
2019-04-11T23:25:54.074Z,21.10
2019-04-11T23:28:23.243Z,19.90
2019-04-11T23:30:52.410Z,23.13
2019-04-11T23:33:22.134Z,19.77
2019-04-11T23:35:51.793Z,19.10
2019-04-11T23:38:23.598Z,19.23
2019-04-11T23:40:51.995Z,20.20
2019-04-11T23:43:20.830Z,21.03
2019-04-11T23:45:51.207Z,20.80
2019-04-11T23:48:23.852Z,20.90
2019-04-11T23:50:54.885Z,18.93
2019-04-11T23:53:22.706Z,17.03
2019-04-11T23:55:51.786Z,19.07
2019-04-11T23:58:20.701Z,24.67
